x

Ilm3 - 27 Miles Se Of Wrightsville Beach, Nc (41037) Weather Station

2:00am - Tue 22nd Jul 2014 All times are EDT. -4 hours from GMT.

  • Wind
    9mph, 11mph gusts
  • Sea Temp 80°f
  • Air Temp 75°f
  • Sea Pressure 1019mb
  • Ilm3 - 27 Miles Se Of Wrightsville Beach, Nc
  • Ilm3 - 27 Miles Se Of Wrightsville Beach, Nc

More Historic Weather Station data

Upgrade to MSW Pro to gain access to the past 30 days of data for over 8000 Wavebouys and Weather Stations around the globe.

Join Pro

Comparision Forecast

View Surf forecast
   
Tue 07/22 2:00am 9 11 mph 1019mb 80f 75f
1:00am 11 13 mph 1019.3mb 80f 76f
12:00am 16 18 mph 1019.6mb 80f 76f
Mon 07/21 11:00pm 13 16 mph 1019.8mb 80f 76f
10:00pm 16 18 mph 1019.3mb 80f 76f
9:00pm 13 16 mph 1019.3mb 80f 76f
8:00pm 13 16 mph 1018.9mb 80f 76f
5:00pm 13 16 mph 1019.3mb 80f 75f
4:00pm 16 18 mph 1019.5mb 80f 74f
3:00pm 20 25 mph 1019.1mb 81f 74f
2:00pm 4 9 mph 1019.4mb 81f 78f
1:00pm 7 9 mph 1019.8mb 81f 78f
12:00pm 9
mph
1019.8mb 81f 78f
11:00am 9
mph
1019.8mb 81f 78f
10:00am 7 9 mph 1019.4mb 81f 78f
9:00am 7 9 mph 1019.5mb 80f 78f
8:00am 9
mph
1019.3mb 80f 77f
7:00am 7 9 mph 1018.6mb 80f 77f
6:00am 7
mph
1018.1mb 80f 77f
5:00am 4 7 mph 1017.8mb 80f 77f
3:00am 4 7 mph 1017.9mb 80f 77f
2:00am 4 7 mph 1018.4mb 80f 77f
1:00am 7 9 mph 1018.8mb 81f 78f
12:00am 7
mph
1019mb 81f 78f
Sun 07/20 11:00pm 7 9 mph 1019.1mb 81f 78f
10:00pm 9 11 mph 1018.6mb 81f 78f
9:00pm 9 11 mph 1018.3mb 81f 78f
8:00pm 9 11 mph 1018mb 81f 78f
7:00pm 7 9 mph 1017.8mb 82f 79f
6:00pm 2 4 mph 1018.3mb 82f 79f
5:00pm 7 9 mph 1017.9mb 82f 78f
4:00pm 7
mph
1018.2mb 81f 78f
3:00pm 4 7 mph 1018.3mb 81f 78f
2:00pm 2 4 mph 1018.7mb 81f 78f
1:00pm 4 7 mph 1019.4mb 81f 78f
12:00pm 2 4 mph 1019.5mb 80f 78f
11:00am 2 4 mph 1019.5mb 80f 78f
10:00am 2 4 mph 1019.5mb 80f 78f
9:00am 2
mph
1019.4mb 80f 77f
8:00am 2 4 mph 1018.9mb 80f 76f
7:00am 2 4 mph 1018.2mb 80f 76f
6:00am 2 4 mph 1018mb 80f 75f
5:00am 4 7 mph 1017.3mb 80f 75f
4:00am 2 4 mph 1017mb 80f 75f
3:00am 2 4 mph 1017.2mb 80f 75f
1:00am 4
mph
1018.2mb 80f 75f
12:00am 4
mph
1018.3mb 80f 75f
Sat 07/19 11:00pm 2 4 mph 1018.8mb 80f 75f
10:00pm 2 4 mph 1019mb 80f 75f
9:00pm 2 4 mph 1018.5mb 80f 75f
8:00pm 2 4 mph 1018.6mb 80f 75f
6:00pm 4 7 mph 1017.7mb 80f 75f
5:00pm 7 9 mph 1017.7mb 80f 75f
4:00pm 7 9 mph 1018mb 80f 76f
3:00pm 11 13 mph 1017.8mb 80f 75f
2:00pm 11 13 mph 1018.2mb 80f 75f
1:00pm 11 13 mph 1018.5mb 80f 74f
12:00pm 13 16 mph 1018.6mb 80f 74f
11:00am 16 18 mph 1018.7mb 80f 73f
10:00am 13 16 mph 1018.5mb 80f 73f
9:00am 16 18 mph 1018.7mb 80f 74f
8:00am 16 18 mph 1018.1mb 80f 74f
7:00am 16 20 mph 1017.9mb 80f 74f
6:00am 18 22 mph 1017.7mb 80f 75f
5:00am 18 20 mph 1018mb 80f 74f
4:00am 16 20 mph 1018mb 80f 75f
3:00am 18 20 mph 1018.2mb 80f 74f
2:00am 18 22 mph 1018.4mb 80f 74f
1:00am 22 27 mph 1018.6mb 80f 75f
12:00am 22 25 mph 1019.9mb 80f 75f
Fri 07/18 11:00pm 22 25 mph 1019.8mb 80f 76f
10:00pm 25 27 mph 1020.2mb 80f 76f
9:00pm 20 25 mph 1020.1mb 80f 76f
8:00pm 20 22 mph 1019.7mb 80f 76f
7:00pm 22 25 mph 1019.5mb 80f 76f
6:00pm 22 25 mph 1020mb 80f 77f
5:00pm 22 27 mph 1020mb 80f 77f
4:00pm 22 29 mph 1019.7mb 80f 76f
3:00pm 25 29 mph 1019.8mb 80f 76f
2:00pm 22 27 mph 1019.6mb 80f 76f
1:00pm 22 27 mph 1019.8mb 80f 76f
12:00pm 20 22 mph 1020mb 80f 76f
11:00am 20 25 mph 1020mb 80f 76f
10:00am 22 25 mph 1019.8mb 80f 76f
8:00am 20 22 mph 1019.4mb 80f 76f